Time;durP1;ratioP1;P1;durP2;ratioP2;P2;SDS_P1;SDS_P2;PMS_P1;PMS_P2;Temp;Humidity;BMP_temperature;BMP_pressure;BME280_temperature;BME280_humidity;BME280_pressure;Samples;Min_cycle;Max_cycle;Signal;HPM_P1;HPM_P2
2022/06/10 00:01:21;;;;;;;19.75;15.38;;;17.30;53.20;;;18.36;99.74;99006.28;5037728;27;118843;-72
2022/06/10 00:03:50;;;;;;;18.73;15.73;;;17.30;33.90;;;18.43;99.25;98994.56;5026063;27;129585;-71
2022/06/10 00:06:20;;;;;;;20.80;15.93;;;17.30;25.40;;;18.49;99.09;99001.31;5045159;27;130166;-71
2022/06/10 00:08:50;;;;;;;19.35;15.77;;;17.40;27.40;;;18.56;98.64;99000.59;5030378;27;118649;-70
2022/06/10 00:11:18;;;;;;;17.77;14.68;;;17.40;26.70;;;18.61;98.18;98998.28;5045326;27;119647;-70
2022/06/10 00:13:49;;;;;;;19.38;15.45;;;17.30;24.50;;;18.58;97.75;99004.53;5029844;27;129096;-71
2022/06/10 00:16:20;;;;;;;17.40;15.52;;;17.30;16.40;;;18.56;97.33;99003.34;5026728;27;129519;-71
2022/06/10 00:18:51;;;;;;;19.02;15.93;;;17.20;13.60;;;18.51;97.48;98998.97;5045731;27;120084;-69
2022/06/10 00:21:22;;;;;;;19.02;16.50;;;17.10;18.30;;;18.41;98.14;99007.91;5045146;27;118965;-69
2022/06/10 00:23:51;;;;;;;17.85;15.95;;;17.10;39.30;;;18.35;98.29;99001.16;5045033;27;130331;-70
2022/06/10 00:26:20;;;;;;;16.98;15.18;;;17.10;64.10;;;18.33;98.35;99002.31;5028405;27;128492;-70
2022/06/10 00:28:49;;;;;;;17.48;15.68;;;17.00;84.60;;;18.32;98.26;99003.50;5045094;27;119739;-70
2022/06/10 00:31:19;;;;;;;18.30;15.30;;;17.00;93.90;;;18.32;97.60;99003.50;5044943;27;119865;-70
2022/06/10 00:33:47;;;;;;;18.38;15.75;;;16.90;90.10;;;18.30;98.08;99005.81;5044317;27;130107;-72
2022/06/10 00:36:17;;;;;;;18.50;16.30;;;16.90;99.90;;;18.28;98.31;99005.41;5044310;27;129492;-71
2022/06/10 00:38:47;;;;;;;18.90;16.80;;;17.00;99.90;;;18.28;98.45;98999.91;5044896;27;120014;-71
2022/06/10 00:41:16;;;;;;;17.55;15.75;;;16.90;99.90;;;18.26;98.46;98999.50;5029885;27;119753;-70
2022/06/10 00:43:45;;;;;;;18.40;16.13;;;16.90;99.90;;;18.25;98.62;98997.91;5044724;27;130395;-70
2022/06/10 00:46:33;;;;;;;20.83;16.45;;;17.00;99.90;;;18.23;98.56;98997.53;5027737;27;130084;-70
2022/06/10 00:49:14;;;;;;;18.83;16.13;;;16.90;99.90;;;18.23;98.19;99000.25;5045283;27;119688;-72
2022/06/10 00:51:48;;;;;;;19.10;16.10;;;16.90;99.90;;;18.18;98.23;99008.81;5029922;27;118102;-72
2022/06/10 00:54:23;;;;;;;20.10;17.85;;;16.80;99.90;;;18.02;99.87;99005.50;5047394;27;129918;-71
2022/06/10 00:56:56;;;;;;;19.67;17.08;;;16.80;99.90;;;17.91;100.00;99013.59;5046697;27;130144;-70
2022/06/10 00:59:29;;;;;;;20.52;17.13;;;16.70;99.90;;;17.88;100.00;99017.88;5030028;27;120287;-69
2022/06/10 01:02:03;;;;;;;19.35;17.35;;;16.70;99.90;;;17.89;99.94;99013.97;5044868;27;120132;-70
2022/06/10 01:04:31;;;;;;;19.20;16.25;;;16.60;99.90;;;17.86;99.88;99014.69;5027765;27;130062;-71
2022/06/10 01:07:02;;;;;;;23.55;17.58;;;16.60;99.90;;;17.87;99.86;99010.78;5044170;27;129689;-71
2022/06/10 01:09:32;;;;;;;19.85;17.13;;;16.60;99.90;;;17.89;100.00;99024.16;5044991;27;119018;-70
2022/06/10 01:12:45;;;;;;;22.15;17.45;;;16.60;99.90;;;17.84;100.00;99021.69;5044579;27;118872;-70
2022/06/10 01:15:31;;;;;;;22.25;17.10;;;16.60;99.90;;;17.78;100.00;99024.00;5023710;27;130575;-71
2022/06/10 01:18:25;;;;;;;19.87;17.10;;;16.60;99.90;;;17.74;99.97;99023.13;5024699;27;128882;-73
2022/06/10 01:21:19;;;;;;;20.75;16.20;;;16.50;99.90;;;17.70;100.00;99023.09;5041129;27;119604;-70
2022/06/10 01:24:21;;;;;;;21.52;17.33;;;16.40;99.90;;;17.74;100.00;99028.63;5041328;27;119625;-72
2022/06/10 01:27:52;;;;;;;18.02;16.10;;;16.50;99.90;;;17.66;99.93;99026.97;5025664;27;128740;-70
2022/06/10 01:31:05;;;;;;;19.75;16.38;;;16.40;99.90;;;17.63;100.00;99028.47;5040532;27;129791;-71
2022/06/10 01:34:04;;;;;;;21.15;17.98;;;16.30;99.90;;;17.64;100.00;99029.25;5042678;27;118463;-71
2022/06/10 01:36:46;;;;;;;22.77;17.38;;;16.50;99.90;;;17.68;100.00;99030.13;5040902;27;119395;-71
2022/06/10 01:39:30;;;;;;;20.35;17.52;;;16.40;99.90;;;17.57;100.00;99025.25;5040627;27;129796;-71
2022/06/10 01:42:09;;;;;;;20.65;17.33;;;16.30;99.90;;;17.54;100.00;99039.72;5024552;27;129307;-72
2022/06/10 01:44:52;;;;;;;20.65;18.55;;;16.30;99.90;;;17.53;100.00;99034.59;5040918;27;119874;-73
2022/06/10 01:47:27;;;;;;;23.95;18.40;;;16.30;99.90;;;17.48;100.00;99037.66;5021312;27;119580;-70
2022/06/10 01:50:01;;;;;;;20.75;17.92;;;16.30;99.90;;;17.42;100.00;99035.25;5021756;27;129970;-70
2022/06/10 01:52:39;;;;;;;20.90;18.63;;;16.30;99.90;;;17.39;100.00;99029.69;5025213;27;129035;-71
2022/06/10 01:55:18;;;;;;;22.25;18.52;;;16.30;99.90;;;17.39;100.00;99026.94;5025647;27;119320;-71
2022/06/10 01:57:54;;;;;;;19.67;16.55;;;16.30;99.90;;;17.47;100.00;99025.91;5040222;27;119769;-72
2022/06/10 02:00:28;;;;;;;19.15;17.15;;;16.20;99.90;;;17.54;100.00;99017.75;5039626;27;129923;-71
2022/06/10 02:03:05;;;;;;;20.85;18.73;;;16.30;99.90;;;17.53;100.00;99020.88;5038648;27;129283;-73
2022/06/10 02:05:40;;;;;;;19.05;16.73;;;16.20;99.90;;;17.54;100.00;99026.00;5038935;27;119366;-71
2022/06/10 02:08:15;;;;;;;20.58;18.15;;;16.30;99.90;;;17.56;100.00;99029.19;5059572;27;118976;-74
2022/06/10 02:10:50;;;;;;;24.73;17.33;;;16.30;99.90;;;17.47;100.00;99034.13;5060042;27;130426;-71
2022/06/10 02:13:25;;;;;;;22.03;19.37;;;16.20;99.90;;;17.38;100.00;99033.59;5059086;27;129425;-72
2022/06/10 02:15:59;;;;;;;20.73;18.52;;;16.20;99.90;;;17.31;100.00;99028.00;5045106;27;119262;-70
2022/06/10 02:18:35;;;;;;;19.33;17.30;;;16.10;99.90;;;17.32;100.00;99043.31;5060338;27;119852;-71
2022/06/10 02:21:11;;;;;;;20.40;17.30;;;16.10;99.90;;;17.27;100.00;99033.44;5059922;27;129842;-70
2022/06/10 02:23:48;;;;;;;19.35;16.80;;;16.10;99.90;;;17.31;100.00;99049.94;5059977;27;130755;-71
2022/06/10 02:26:17;;;;;;;;;;;16.20;99.90;;;17.27;100.00;99038.13;5045688;27;118708;-70
2022/06/10 02:28:54;;;;;;;21.38;16.83;;;16.20;99.90;;;17.39;100.00;99046.13;5045557;27;118544;-71
2022/06/10 02:31:29;;;;;;;18.55;16.52;;;16.20;99.90;;;17.54;100.00;99045.19;5044057;27;128857;-72
2022/06/10 02:34:00;;;;;;;21.20;19.00;;;16.30;99.90;;;17.64;100.00;99040.22;5045120;27;128861;-71
2022/06/10 02:36:39;;;;;;;18.98;17.08;;;16.40;99.90;;;17.60;100.00;99048.44;5048011;27;119512;-71
2022/06/10 02:39:17;;;;;;;19.52;17.52;;;16.40;99.90;;;17.64;100.00;99042.97;5038846;27;119884;-71
2022/06/10 02:41:55;;;;;;;22.02;17.98;;;16.50;99.90;;;17.76;100.00;99051.00;5039365;27;130562;-74
2022/06/10 02:44:31;;;;;;;19.08;17.08;;;16.50;99.90;;;17.86;99.87;99057.81;5053680;27;129391;-72
2022/06/10 02:47:09;;;;;;;22.13;17.85;;;16.60;99.90;;;18.00;99.66;99057.22;5051806;27;119767;-69
2022/06/10 02:49:39;;;;;;;18.77;16.88;;;16.70;99.90;;;18.13;99.07;99055.84;5056056;27;119440;-70
2022/06/10 02:52:09;;;;;;;17.50;15.60;;;16.80;99.90;;;18.41;98.01;99062.84;5059491;27;129978;-71
2022/06/10 02:54:40;;;;;;;16.38;14.68;;;16.90;99.90;;;18.72;96.83;99066.31;5059546;27;129900;-71
2022/06/10 02:57:16;;;;;;;16.10;14.35;;;17.00;99.90;;;18.92;94.55;99059.47;5060259;27;119329;-71
2022/06/10 03:02:51;;;;;;;17.00;13.90;;;17.20;35.80;;;19.75;89.38;99063.66;5059597;27;131113;-72
2022/06/10 03:05:34;;;;;;;13.65;12.05;;;17.70;1.00;;;20.88;87.49;99064.94;5022767;27;129020;-71
2022/06/10 03:08:18;;;;;;;12.02;10.57;;;18.60;1.00;;;22.07;80.72;99076.72;5039309;27;119723;-71
2022/06/10 03:11:02;;;;;;;13.38;11.02;;;19.30;1.00;;;23.22;74.27;99076.13;5039225;27;119166;-72
2022/06/10 03:14:00;;;;;;;11.30;10.13;;;19.80;1.00;;;24.02;68.48;99082.50;5038795;27;130794;-72
2022/06/10 03:16:50;;;;;;;12.23;10.27;;;19.50;1.00;;;24.69;64.73;99084.88;5007155;27;128319;-71
2022/06/10 03:19:35;;;;;;;10.52;9.38;;;19.40;1.00;;;25.18;62.22;99086.56;5039236;27;119351;-71
2022/06/10 03:22:20;;;;;;;17.10;10.50;;;20.00;1.00;;;24.96;63.71;99086.88;5024401;27;118676;-70
2022/06/10 03:24:59;;;;;;;11.33;9.17;;;20.40;1.00;;;24.99;63.00;99093.59;5024475;27;129447;-70
2022/06/10 03:27:37;;;;;;;13.50;11.43;;;20.70;1.00;;;24.84;63.39;99095.78;5038976;27;129529;-72
2022/06/10 03:30:10;;;;;;;13.57;11.90;;;20.20;1.00;;;24.40;64.70;99087.22;5039273;27;119738;-70
2022/06/10 03:32:45;;;;;;;14.75;12.48;;;20.00;1.00;;;23.97;66.58;99090.50;5023571;27;119638;-73
2022/06/10 03:35:20;;;;;;;14.77;12.48;;;19.80;1.00;;;23.57;68.56;99090.84;5023406;27;129966;-70
2022/06/10 03:37:50;;;;;;;13.40;12.07;;;19.70;1.00;;;22.89;71.23;99097.69;5038176;27;129552;-71
2022/06/10 03:40:24;;;;;;;13.82;12.43;;;19.40;1.00;;;22.39;73.91;99097.94;5039175;27;119546;-72
2022/06/10 03:42:58;;;;;;;14.65;13.13;;;19.40;1.00;;;22.39;74.75;99086.88;5038928;27;119635;-70
2022/06/10 03:45:34;;;;;;;14.90;13.40;;;19.40;1.00;;;22.36;75.21;99098.72;5020414;27;129668;-71
2022/06/10 03:48:03;;;;;;;14.87;13.43;;;19.60;1.00;;;22.22;76.51;99094.81;5037657;27;129866;-71
2022/06/10 03:50:39;;;;;;;16.75;14.00;;;19.70;1.00;;;21.94;77.76;99090.16;5039580;27;119470;-71
2022/06/10 03:53:15;;;;;;;14.70;13.20;;;19.50;1.00;;;21.56;79.74;99094.56;5024425;27;118130;-69
2022/06/10 03:55:44;;;;;;;14.85;13.35;;;19.50;1.00;;;21.34;80.73;99102.81;5038780;27;129692;-69
2022/06/10 03:58:12;;;;;;;14.77;13.10;;;19.50;1.00;;;21.28;80.84;99096.09;5037458;27;129384;-72
2022/06/10 04:00:42;;;;;;;14.55;13.05;;;19.50;1.00;;;21.25;81.65;99100.44;5025935;27;118664;-69
2022/06/10 04:03:11;;;;;;;17.50;13.70;;;19.70;1.00;;;21.40;81.47;99100.47;5046741;27;120103;-70
2022/06/10 04:05:40;;;;;;;14.10;12.70;;;19.70;1.00;;;21.43;81.90;99094.94;5061222;27;130528;-72
2022/06/10 04:08:10;;;;;;;17.48;12.65;;;19.80;1.00;;;21.70;80.52;99091.78;5019590;27;128595;-74
2022/06/10 04:10:39;;;;;;;14.73;12.50;;;20.00;1.00;;;21.92;79.66;99097.25;5053902;27;119644;-74
2022/06/10 04:13:07;;;;;;;14.48;11.23;;;20.20;1.00;;;21.83;79.21;99101.22;5041271;27;119624;-72
2022/06/10 04:15:36;;;;;;;12.70;11.40;;;20.10;1.00;;;21.87;78.52;99101.22;5059097;27;129824;-75
2022/06/10 04:18:05;;;;;;;12.77;11.48;;;20.10;1.00;;;21.83;78.34;99101.22;5046102;27;130013;-71
2022/06/10 04:20:37;;;;;;;12.95;11.23;;;20.10;1.00;;;21.97;79.05;99094.09;5018082;28;119514;-71
2022/06/10 04:23:07;;;;;;;13.25;11.65;;;20.20;1.00;;;22.08;77.90;99100.41;4998905;28;119472;-70
2022/06/10 04:25:39;;;;;;;12.52;11.00;;;20.40;1.00;;;22.11;78.15;99093.25;5017643;28;129868;-70
2022/06/10 04:28:08;;;;;;;13.05;11.77;;;20.40;1.00;;;22.20;78.03;99102.69;5017542;28;129409;-71
2022/06/10 04:30:42;;;;;;;15.98;11.23;;;20.40;1.00;;;22.32;77.73;99097.97;5018258;28;119417;-71
2022/06/10 04:33:11;;;;;;;13.77;11.95;;;20.50;1.00;;;22.42;77.54;99097.94;5018184;28;120128;-72
2022/06/10 04:35:41;;;;;;;12.48;11.18;;;20.60;1.00;;;22.39;77.58;99095.97;5017117;28;130176;-73
2022/06/10 04:38:09;;;;;;;12.95;11.25;;;20.50;1.00;;;22.65;76.72;99098.59;5017577;28;129805;-73
2022/06/10 04:40:41;;;;;;;13.15;11.07;;;20.70;1.00;;;22.74;76.37;99094.19;5018476;28;118815;-70
2022/06/10 04:43:10;;;;;;;12.30;10.95;;;20.70;1.00;;;22.78;76.89;99099.72;5017737;28;119070;-70
2022/06/10 04:45:44;;;;;;;12.20;10.95;;;20.90;1.00;;;23.01;75.65;99103.94;5017268;28;130373;-76
2022/06/10 04:48:14;;;;;;;13.60;12.07;;;21.00;1.00;;;22.96;76.23;99105.91;5016385;28;129748;-71
2022/06/10 04:50:44;;;;;;;14.45;12.00;;;21.00;1.00;;;23.04;76.00;99105.88;5018931;27;120916;-71
2022/06/10 04:53:12;;;;;;;12.20;10.82;;;21.10;1.00;;;23.20;76.22;99106.19;5030148;27;119814;-71
2022/06/10 04:55:43;;;;;;;14.10;11.63;;;21.30;1.00;;;23.32;75.99;99102.16;5040725;27;129730;-71
2022/06/10 04:58:12;;;;;;;12.68;11.38;;;21.40;1.00;;;23.21;75.74;99107.00;5040757;27;130013;-72
2022/06/10 05:00:45;;;;;;;15.38;12.30;;;21.30;1.00;;;23.21;75.46;99105.00;5041058;27;119507;-70
2022/06/10 05:03:13;;;;;;;13.00;11.68;;;21.30;1.00;;;23.20;76.12;99106.19;5043563;27;119441;-72
2022/06/10 05:05:42;;;;;;;17.83;12.18;;;21.30;1.00;;;23.55;74.98;99104.34;5061737;27;130279;-72
2022/06/10 05:08:15;;;;;;;13.32;12.02;;;21.40;1.00;;;23.38;75.07;99106.06;5061463;27;129042;-70
2022/06/10 05:10:45;;;;;;;12.80;11.48;;;21.50;1.00;;;23.46;75.60;99109.56;5061734;27;120369;-71
2022/06/10 05:13:16;;;;;;;15.13;12.07;;;21.60;1.00;;;23.61;75.51;99113.78;5060571;27;119432;-72
2022/06/10 05:15:44;;;;;;;13.10;11.70;;;21.80;1.00;;;23.69;74.24;99115.28;5062858;27;128712;-70
2022/06/10 05:18:14;;;;;;;15.02;11.68;;;21.80;99.90;;;24.00;74.17;99107.09;5061085;27;129659;-73
2022/06/10 05:20:45;;;;;;;12.13;10.63;;;22.10;1.00;;;24.07;73.18;99111.00;5061604;27;119394;-72
2022/06/10 05:23:16;;;;;;;12.73;10.80;;;22.10;99.90;;;24.28;73.09;99115.50;5058802;27;119776;-72
2022/06/10 05:25:46;;;;;;;11.98;10.75;;;22.30;99.90;;;24.23;72.63;99108.41;5060918;27;130309;-71
2022/06/10 05:28:17;;;;;;;13.18;11.45;;;22.40;99.90;;;24.50;71.46;99110.50;5059279;27;129950;-74
2022/06/10 05:30:46;;;;;;;13.48;10.70;;;22.60;99.90;;;24.52;71.68;99108.06;5045405;27;118739;-70
2022/06/10 05:33:15;;;;;;;17.92;10.75;;;22.60;99.90;;;24.54;71.20;99114.00;5041350;27;118632;-71
2022/06/10 05:35:46;;;;;;;11.57;10.20;;;22.60;99.90;;;24.84;70.93;99109.66;5059438;27;131138;-70
2022/06/10 05:38:16;;;;;;;12.52;10.77;;;22.90;99.90;;;24.98;70.95;99106.69;5055148;27;129106;-70
2022/06/10 05:40:46;;;;;;;11.80;10.60;;;23.00;99.90;;;25.21;69.83;99108.72;5041050;27;120669;-71
2022/06/10 05:43:16;;;;;;;11.77;10.15;;;23.10;99.90;;;25.20;70.17;99100.81;5041105;27;119765;-69
2022/06/10 05:45:44;;;;;;;15.82;10.80;;;23.10;99.90;;;25.30;70.40;99111.00;5040672;27;130074;-70
2022/06/10 05:48:13;;;;;;;12.18;10.80;;;23.20;99.90;;;25.43;70.51;99117.53;5042355;27;129101;-70
2022/06/10 05:50:44;;;;;;;12.60;10.70;;;23.40;99.90;;;25.72;69.25;99119.03;5038950;27;119727;-71
2022/06/10 05:53:15;;;;;;;14.85;10.80;;;23.60;99.90;;;26.06;68.49;99121.59;5025985;27;118255;-71
2022/06/10 05:55:45;;;;;;;12.88;11.18;;;23.90;99.90;;;26.02;68.39;99120.88;5040487;27;130434;-72
2022/06/10 05:58:14;;;;;;;14.68;10.70;;;23.40;99.90;;;26.26;67.50;99118.84;5040067;27;130055;-71
2022/06/10 06:00:43;;;;;;;15.00;11.52;;;23.70;99.90;;;25.93;67.94;99117.84;5042116;27;118535;-70
2022/06/10 06:03:11;;;;;;;12.70;11.43;;;23.70;99.90;;;25.81;67.58;99125.59;5039624;27;119967;-70
2022/06/10 06:05:40;;;;;;;13.55;9.57;;;23.70;99.90;;;25.90;68.49;99118.69;5057921;27;129847;-72
2022/06/10 06:08:11;;;;;;;11.07;9.95;;;23.80;99.90;;;25.81;68.07;99125.59;5066152;27;102739;-70
2022/06/10 06:10:40;;;;;;;13.85;10.38;;;23.90;99.90;;;25.99;67.26;99122.53;5057460;27;118336;-71
2022/06/10 06:13:11;;;;;;;12.02;10.30;;;24.10;99.90;;;26.16;65.76;99117.84;5060277;27;119616;-73
2022/06/10 06:15:40;;;;;;;10.20;9.20;;;24.20;99.90;;;26.46;65.22;99120.81;5051490;27;130542;-73
2022/06/10 06:18:10;;;;;;;11.13;8.95;;;24.20;99.90;;;26.73;63.29;99126.25;5036252;27;129252;-75
2022/06/10 06:20:39;;;;;;;14.35;9.50;;;24.40;99.90;;;26.61;63.20;99121.31;5059392;27;118616;-72
2022/06/10 06:23:08;;;;;;;10.75;9.50;;;24.40;99.90;;;26.60;63.52;99122.53;5060332;27;118856;-73
2022/06/10 06:25:37;;;;;;;15.80;9.77;;;24.40;99.90;;;26.45;63.41;99131.16;5060046;27;131126;-71
2022/06/10 06:28:07;;;;;;;10.57;8.90;;;24.40;99.90;;;26.75;63.05;99123.81;5060591;27;129112;-72
2022/06/10 06:30:38;;;;;;;10.30;8.60;;;24.80;99.90;;;26.92;61.55;99124.63;5060146;27;120150;-72
2022/06/10 06:33:09;;;;;;;12.57;8.32;;;25.00;99.90;;;27.26;60.64;99127.03;5060669;27;119876;-73
2022/06/10 06:35:40;;;;;;;11.80;8.52;;;25.10;99.90;;;27.40;59.23;99130.72;5060022;27;130068;-71
2022/06/10 06:38:10;;;;;;;12.55;8.45;;;25.20;99.90;;;27.60;57.99;99133.44;5059821;27;129189;-75
2022/06/10 06:40:40;;;;;;;12.18;8.63;;;25.20;99.90;;;27.24;60.78;99123.13;5058446;27;119930;-73
2022/06/10 06:43:09;;;;;;;11.27;8.85;;;25.10;99.90;;;27.18;61.16;99122.84;5060382;27;119834;-75
2022/06/10 06:45:40;;;;;;;10.55;9.27;;;25.20;99.90;;;27.08;60.88;99121.09;5058370;27;130332;-72
2022/06/10 06:48:11;;;;;;;9.30;8.38;;;25.10;99.90;;;27.39;60.79;99129.16;5060099;27;129618;-73
2022/06/10 06:50:45;;;;;;;9.30;8.13;;;25.40;99.90;;;27.82;58.85;99128.06;5060171;27;120168;-71
2022/06/10 06:53:14;;;;;;;16.50;7.75;;;25.70;99.90;;;27.98;55.59;99130.84;5061276;27;119605;-73
2022/06/10 06:55:43;;;;;;;9.75;7.53;;;25.90;99.90;;;28.21;54.26;99125.50;5059894;27;130735;-72
2022/06/10 06:58:15;;;;;;;9.18;7.75;;;25.90;99.90;;;28.21;55.88;99128.28;5059913;27;130084;-71
2022/06/10 07:00:45;;;;;;;10.35;7.90;;;25.90;99.90;;;28.18;55.73;99126.38;5062409;27;119092;-70
2022/06/10 07:03:13;;;;;;;10.55;7.78;;;25.90;99.90;;;28.62;56.83;99129.50;5057099;27;119585;-72
2022/06/10 07:05:42;;;;;;;11.10;8.05;;;26.30;99.90;;;28.94;56.52;99125.75;5054027;27;130271;-72
2022/06/10 07:08:12;;;;;;;9.07;7.90;;;26.60;99.90;;;28.86;54.55;99128.00;5060353;27;129445;-74
2022/06/10 07:10:41;;;;;;;10.63;7.97;;;26.40;99.90;;;28.48;55.29;99125.09;5061187;27;118866;-72
2022/06/10 07:13:09;;;;;;;8.82;7.93;;;26.20;99.90;;;28.69;54.71;99132.88;5059373;27;119084;-73
2022/06/10 07:15:39;;;;;;;11.75;8.30;;;26.30;99.90;;;28.98;53.77;99122.84;5059905;27;130409;-73
2022/06/10 07:18:10;;;;;;;10.10;7.45;;;26.30;99.90;;;29.23;52.39;99136.03;5058960;27;129839;-72
2022/06/10 07:20:40;;;;;;;10.05;8.30;;;26.30;99.90;;;29.10;53.18;99133.25;5060949;27;119873;-73
2022/06/10 07:23:08;;;;;;;10.35;7.57;;;26.60;99.90;;;28.80;52.86;99132.56;5060759;27;119388;-71
2022/06/10 07:25:37;;;;;;;9.38;7.35;;;26.50;99.90;;;28.94;53.02;99130.56;5060616;27;130146;-71
2022/06/10 07:28:07;;;;;;;10.95;7.30;;;26.70;99.90;;;29.11;50.51;99131.22;5060236;27;129565;-73
2022/06/10 07:30:36;;;;;;;9.18;6.90;;;26.80;99.90;;;29.12;48.33;99143.97;5060590;27;119650;-74
2022/06/10 07:33:05;;;;;;;10.18;6.32;;;26.30;99.90;;;29.36;48.10;99136.81;5060342;27;119349;-72
2022/06/10 07:35:35;;;;;;;8.80;6.05;;;26.50;99.90;;;29.58;48.06;99138.91;5060372;27;131684;-74
2022/06/10 07:38:04;;;;;;;10.90;6.32;;;27.10;99.90;;;29.28;47.73;99155.06;5060074;27;129372;-74
2022/06/10 07:43:23;;;;;;;11.93;6.40;;;27.20;99.90;;;29.64;45.24;99144.72;5058888;27;119771;-71
2022/06/10 07:45:53;;;;;;;8.32;5.82;;;27.20;99.90;;;29.71;45.31;99142.44;5059722;27;130963;-75
2022/06/10 07:48:22;;;;;;;13.02;6.75;;;27.20;99.90;;;29.84;44.68;99144.47;5059589;27;130321;-73
2022/06/10 07:50:52;;;;;;;10.60;6.22;;;27.30;99.90;;;29.98;44.56;99143.19;5060431;27;120698;-75
2022/06/10 07:53:21;;;;;;;13.02;5.47;;;27.50;99.90;;;30.32;42.80;99139.56;5060080;27;119880;-74
2022/06/10 07:55:50;;;;;;;9.32;6.45;;;27.70;99.90;;;30.57;41.20;99143.50;5059753;27;130198;-74
2022/06/10 07:58:20;;;;;;;11.07;5.90;;;27.60;99.90;;;30.69;42.48;99145.44;5060168;27;130040;-76
2022/06/10 08:00:48;;;;;;;10.77;6.50;;;27.50;99.90;;;30.75;40.72;99140.81;5060689;27;119223;-74
2022/06/10 08:03:17;;;;;;;15.95;7.25;;;27.50;99.90;;;30.63;41.34;99141.66;5041686;27;119094;-73
2022/06/10 08:05:46;;;;;;;20.42;8.02;;;27.40;99.90;;;30.63;40.69;99141.66;5059202;27;130495;-72
2022/06/10 08:08:20;;;;;;;9.73;6.57;;;27.30;99.90;;;30.62;41.08;99140.91;5058033;27;129894;-73
2022/06/10 08:10:50;;;;;;;9.68;6.43;;;27.50;99.90;;;30.75;40.28;99135.19;5059815;27;119659;-73
2022/06/10 08:13:19;;;;;;;9.55;6.20;;;27.50;99.90;;;31.11;40.19;99142.22;5059826;27;120051;-72
2022/06/10 08:15:48;;;;;;;9.65;5.95;;;28.20;99.90;;;31.17;39.22;99145.22;5059234;27;129770;-73
2022/06/10 08:18:21;;;;;;;12.60;6.35;;;28.40;99.90;;;31.24;39.32;99149.75;5059426;27;129381;-74
2022/06/10 08:23:41;;;;;;;13.32;6.28;;;28.00;99.90;;;31.43;39.13;99150.59;5059674;27;119683;-75
2022/06/10 08:26:12;;;;;;;11.10;6.07;;;28.20;99.90;;;31.34;38.98;99137.34;5062775;27;130954;-73
2022/06/10 08:28:44;;;;;;;8.93;5.13;;;28.00;99.90;;;31.40;36.13;99143.91;5047550;27;128698;-73
2022/06/10 08:31:13;;;;;;;6.78;4.30;;;27.90;99.90;;;31.34;36.21;99137.34;5063046;27;119816;-74
2022/06/10 08:33:42;;;;;;;11.50;5.03;;;28.00;99.90;;;31.10;37.68;99139.91;5062048;27;119646;-72
2022/06/10 08:36:13;;;;;;;11.15;5.60;;;28.30;99.90;;;30.79;39.10;99138.66;5062657;27;130850;-73
2022/06/10 08:38:43;;;;;;;6.97;5.20;;;28.40;99.90;;;30.44;39.12;99144.34;5062635;27;129351;-75
2022/06/10 08:41:23;;;;;;;7.97;5.07;;;27.80;99.90;;;30.13;38.96;99144.25;5063030;27;119580;-73
2022/06/10 08:44:12;;;;;;;12.68;5.88;;;27.60;99.90;;;30.00;38.74;99141.50;5062844;27;119675;-73
2022/06/10 08:47:13;;;;;;;8.07;4.97;;;27.50;99.90;;;30.13;39.46;99143.47;5062191;27;130696;-74
2022/06/10 08:50:07;;;;;;;9.68;4.78;;;27.70;99.90;;;29.93;37.79;99144.56;5062618;27;130459;-74
2022/06/10 08:52:44;;;;;;;11.35;5.10;;;27.60;99.90;;;29.70;38.17;99146.50;5063421;27;119709;-74
2022/06/10 08:55:42;;;;;;;8.25;5.20;;;27.50;99.90;;;29.67;37.18;99152.19;5062953;27;119698;-73
2022/06/10 08:58:18;;;;;;;8.38;4.90;;;27.40;99.90;;;29.82;37.02;99146.94;5062300;27;129897;-73
2022/06/10 09:00:48;;;;;;;8.65;4.55;;;27.60;99.90;;;30.02;37.34;99147.44;5062275;27;129448;-71
2022/06/10 09:03:22;;;;;;;7.72;4.70;;;27.80;99.90;;;30.13;39.38;99143.47;5066117;27;119724;-73
2022/06/10 09:05:54;;;;;;;6.53;4.80;;;27.80;99.90;;;30.23;39.63;99137.50;5066071;27;119780;-72
2022/06/10 09:08:26;;;;;;;9.80;5.20;;;27.90;99.90;;;30.27;41.01;99142.97;5066132;27;129809;-73
2022/06/10 09:11:06;;;;;;;7.50;5.60;;;28.00;99.90;;;30.26;41.82;99147.78;5066432;27;129804;-72
2022/06/10 09:13:40;;;;;;;9.60;4.88;;;28.00;99.90;;;30.33;41.62;99146.72;5051681;27;119890;-72
2022/06/10 09:16:15;;;;;;;11.13;5.45;;;28.10;99.90;;;30.33;41.26;99143.94;5062893;27;119452;-73
2022/06/10 09:18:58;;;;;;;6.82;4.80;;;28.10;99.90;;;30.23;39.20;99148.69;5062703;27;130399;-73
2022/06/10 09:21:40;;;;;;;7.22;3.85;;;28.20;99.90;;;30.24;36.44;99136.25;5062285;27;129546;-75
2022/06/10 09:24:19;;;;;;;8.65;4.60;;;28.30;99.90;;;30.52;35.67;99155.28;5062685;27;120439;-73
2022/06/10 09:26:59;;;;;;;6.72;4.50;;;28.40;99.90;;;30.58;35.47;99145.84;5046474;27;118928;-73
2022/06/10 09:29:27;;;;;;;6.50;3.97;;;28.40;99.90;;;30.58;36.16;99150.66;5047179;27;130060;-75
2022/06/10 09:32:07;;;;;;;9.85;4.43;;;28.50;99.90;;;31.09;35.37;99147.53;5061989;27;129575;-74
2022/06/10 09:34:51;;;;;;;10.23;4.72;;;28.90;99.90;;;31.23;34.93;99145.38;5062795;27;119819;-76
2022/06/10 09:37:32;;;;;;;7.65;4.80;;;29.10;99.90;;;31.24;34.26;99136.50;5061967;27;120338;-73
2022/06/10 09:43:43;;;;;;;10.43;4.68;;;29.50;99.90;;;32.25;33.93;99147.13;5043689;27;130541;-75
2022/06/10 09:46:46;;;;;;;8.38;4.32;;;29.70;99.90;;;32.48;33.32;99144.91;5044324;27;119195;-74
2022/06/10 09:50:00;;;;;;;5.47;4.18;;;29.80;99.90;;;32.53;31.25;99144.28;5062639;27;119433;-74
2022/06/10 09:52:34;;;;;;;7.20;3.97;;;29.70;94.60;;;33.38;31.24;99154.81;5056399;27;129945;-76
2022/06/10 09:55:24;;;;;;;6.38;4.05;;;30.00;97.80;;;33.50;31.25;99150.19;5060508;27;129523;-73
2022/06/10 09:58:22;;;;;;;6.47;3.50;;;30.40;96.00;;;33.50;30.02;99138.94;5061728;27;120124;-73
2022/06/10 10:00:59;;;;;;;5.15;2.67;;;29.70;94.30;;;33.76;25.55;99142.06;5061279;27;119768;-74
2022/06/10 10:03:57;;;;;;;5.88;3.33;;;30.00;71.10;;;33.72;26.02;99149.13;5061378;27;130116;-76
2022/06/10 10:06:37;;;;;;;5.95;2.97;;;30.00;72.30;;;33.97;26.48;99143.03;5059606;27;129909;-74
2022/06/10 10:09:19;;;;;;;6.35;2.72;;;30.30;76.40;;;34.34;27.69;99142.69;5061591;27;119730;-74
2022/06/10 10:12:05;;;;;;;6.95;2.80;;;30.80;78.90;;;34.49;25.56;99136.31;5058930;27;119460;-72
2022/06/10 10:14:40;;;;;;;;;;;30.80;70.50;;;34.47;24.65;99150.09;5041210;27;130572;-73
2022/06/10 10:17:38;;;;;;;10.53;3.70;;;30.80;63.60;;;34.27;25.18;99143.09;5040190;27;130061;-76
2022/06/10 10:20:18;;;;;;;5.95;3.00;;;30.30;63.50;;;34.25;26.36;99137.16;5040361;27;120963;-73
2022/06/10 10:23:09;;;;;;;8.70;2.80;;;30.50;70.30;;;34.40;25.87;99140.00;5040417;27;118905;-71
2022/06/10 10:25:41;;;;;;;6.43;2.97;;;31.10;63.90;;;34.43;24.12;99144.66;5039615;27;130698;-75
2022/06/10 10:28:20;;;;;;;5.85;2.97;;;30.60;57.20;;;34.61;24.71;99143.72;5039683;27;130326;-74
2022/06/10 10:31:01;;;;;;;6.97;3.13;;;30.70;60.50;;;34.75;24.30;99139.34;5038942;27;120174;-78
2022/06/10 10:33:30;;;;;;;4.82;2.88;;;31.00;57.50;;;34.41;25.36;99147.19;5040406;27;119337;-74
2022/06/10 10:36:00;;;;;;;6.72;3.05;;;30.30;61.00;;;34.46;24.46;99140.88;5040004;27;130399;-73
2022/06/10 10:38:38;;;;;;;5.18;2.83;;;30.40;58.90;;;34.56;24.63;99141.56;5025338;27;129817;-74
2022/06/10 10:41:26;;;;;;;9.02;3.00;;;30.60;57.20;;;34.45;25.48;99130.09;5041210;27;118482;-74
2022/06/10 10:44:00;;;;;;;10.45;3.22;;;31.00;57.20;;;34.58;27.47;99133.41;5040611;27;119031;-75
2022/06/10 10:46:39;;;;;;;8.23;3.38;;;31.50;69.90;;;35.07;26.22;99134.72;5040159;27;129902;-72
2022/06/10 10:49:25;;;;;;;12.27;3.78;;;31.80;58.70;;;35.50;25.52;99136.34;5038324;27;129412;-74